Time;durP1;ratioP1;P1;durP2;ratioP2;P2;SDS_P1;SDS_P2;PMS_P1;PMS_P2;Temp;Humidity;BMP_temperature;BMP_pressure;BME280_temperature;BME280_humidity;BME280_pressure;Samples;Min_cycle;Max_cycle;Signal;HPM_P1;HPM_P2
2022/10/11 00:01:01;;;;;;;;;2.75;1.75;;;;;15.21;61.10;101700.66;4995889;28;45394;-59
2022/10/11 00:03:27;;;;;;;;;3.00;3.00;;;;;15.25;60.66;101721.25;4994046;28;45372;-61
2022/10/11 00:05:55;;;;;;;;;3.00;3.00;;;;;15.11;61.36;101713.00;4994411;28;45728;-61
2022/10/11 00:08:20;;;;;;;;;3.60;3.00;;;;;15.07;60.80;101714.53;4995572;28;46631;-61
2022/10/11 00:10:55;;;;;;;;;5.50;3.00;;;;;15.14;61.23;101725.56;4995046;28;45472;-60
2022/10/11 00:13:21;;;;;;;;;2.60;2.00;;;;;15.06;61.00;101729.44;4995693;28;45368;-60
2022/10/11 00:15:48;;;;;;;;;2.50;2.50;;;;;14.88;61.37;101719.03;4993967;28;45472;-60
2022/10/11 00:18:13;;;;;;;;;5.40;3.20;;;;;14.61;61.26;101691.44;4995215;28;46300;-61
2022/10/11 00:20:39;;;;;;;;;5.00;2.00;;;;;14.77;61.97;101732.47;4994189;28;45395;-61
2022/10/11 00:23:04;;;;;;;;;2.00;2.00;;;;;14.74;61.09;101729.31;4995276;28;45424;-60
2022/10/11 00:25:30;;;;;;;;;2.00;2.00;;;;;14.73;61.03;101725.66;4994296;28;45619;-61
2022/10/11 00:27:55;;;;;;;;;1.00;1.00;;;;;14.72;61.35;101735.00;4995088;28;46690;-61
2022/10/11 00:30:21;;;;;;;;;7.00;3.75;;;;;14.74;61.19;101735.66;5026802;28;45280;-61
2022/10/11 00:32:46;;;;;;;;;4.25;2.75;;;;;14.74;61.05;101732.91;4994532;28;45346;-61
2022/10/11 00:35:12;;;;;;;;;2.75;2.75;;;;;14.71;61.11;101736.06;4995060;28;45369;-61
2022/10/11 00:37:38;;;;;;;;;3.00;2.25;;;;;14.70;61.00;101745.44;4994632;28;46607;-61
2022/10/11 00:40:08;;;;;;;;;6.50;4.50;;;;;14.73;61.03;101744.16;4994624;28;45320;-60
2022/10/11 00:42:34;;;;;;;;;2.80;2.20;;;;;14.70;60.66;101733.53;4994599;28;45435;-62
2022/10/11 00:45:30;;;;;;;;;5.00;2.50;;;;;14.64;60.62;101740.78;5010091;28;45476;-61
2022/10/11 00:48:09;;;;;;;;;1.80;1.80;;;;;14.52;60.71;101728.66;4994124;28;46173;-61
2022/10/11 00:50:35;;;;;;;;;4.40;3.00;;;;;14.61;61.09;101742.03;4978583;28;45385;-61
2022/10/11 00:53:02;;;;;;;;;5.25;4.00;;;;;14.59;60.52;101748.84;4993191;28;45393;-60
2022/10/11 00:55:30;;;;;;;;;4.80;3.00;;;;;14.61;60.94;101739.28;4993475;28;45378;-64
2022/10/11 00:57:55;;;;;;;;;4.60;3.80;;;;;14.71;60.39;101743.50;4992921;28;46275;-60
2022/10/11 01:00:21;;;;;;;;;3.25;1.25;;;;;14.69;60.18;101746.50;4993334;28;45330;-61
2022/10/11 01:02:46;;;;;;;;;2.00;2.00;;;;;14.70;59.80;101747.34;4994481;28;45823;-61
2022/10/11 01:05:13;;;;;;;;;3.00;2.00;;;;;14.63;60.32;101747.38;5026559;28;45324;-61
2022/10/11 01:07:39;;;;;;;;;2.20;1.00;;;;;14.52;60.40;101735.06;4976785;28;46682;-61
2022/10/11 01:10:05;;;;;;;;;2.25;2.25;;;;;14.54;59.67;101729.28;5026099;28;45615;-61
2022/10/11 01:12:30;;;;;;;;;5.25;1.75;;;;;14.46;60.13;101705.53;4993177;28;45541;-60
2022/10/11 01:15:16;;;;;;;;;2.00;1.00;;;;;14.75;59.45;101740.16;4994416;28;45669;-60
2022/10/11 01:18:02;;;;;;;;;4.00;2.80;;;;;14.73;59.86;101744.16;4993253;28;45477;-60
2022/10/11 01:20:48;;;;;;;;;1.20;1.20;;;;;14.42;59.19;101707.00;4993218;28;45517;-60
2022/10/11 01:23:17;;;;;;;;;3.20;1.80;;;;;14.59;59.67;101751.59;4993910;28;45410;-61
2022/10/11 01:25:48;;;;;;;;;4.40;4.20;;;;;14.61;59.88;101742.03;4975978;28;45533;-60
2022/10/11 01:28:35;;;;;;;;;2.00;0.60;;;;;14.60;59.71;101737.59;4956288;28;46347;-61
2022/10/11 01:31:03;;;;;;;;;2.20;2.00;;;;;14.40;59.83;101709.16;4997596;28;45220;-60
2022/10/11 01:33:34;;;;;;;;;2.40;2.00;;;;;14.35;59.29;101727.19;4997655;28;45334;-61
2022/10/11 01:36:05;;;;;;;;;2.60;1.20;;;;;14.42;59.62;101745.69;5013096;28;45475;-60
2022/10/11 01:38:55;;;;;;;;;4.00;3.00;;;;;14.16;59.24;101714.25;4997450;28;46033;-61
2022/10/11 01:41:26;;;;;;;;;1.60;1.60;;;;;14.34;60.04;101742.06;4995653;28;45366;-62
2022/10/11 01:43:52;;;;;;;;;1.80;1.20;;;;;14.33;59.15;101745.91;4996290;28;45498;-60
2022/10/11 01:46:18;;;;;;;;;2.60;1.00;;;;;14.27;59.60;101738.47;4979678;28;45442;-61
2022/10/11 01:48:52;;;;;;;;;2.50;2.00;;;;;14.36;59.56;101750.97;4995866;28;47370;-61
2022/10/11 01:51:22;;;;;;;;;1.20;1.20;;;;;14.27;59.31;101743.97;5012475;28;46372;-61
2022/10/11 01:54:18;;;;;;;;;2.40;2.40;;;;;14.13;59.02;101718.28;4979555;28;45316;-60
2022/10/11 01:56:57;;;;;;;;;1.60;1.00;;;;;14.09;59.54;101719.78;4997659;28;45230;-61
2022/10/11 01:59:41;;;;;;;;;3.80;1.00;;;;;14.31;59.39;101750.75;4995653;28;46242;-60
2022/10/11 02:02:32;;;;;;;;;1.40;1.40;;;;;14.28;59.44;101744.81;4997298;28;45436;-60
2022/10/11 02:05:22;;;;;;;;;5.20;3.80;;;;;14.34;59.39;101750.34;4996024;28;45259;-61
2022/10/11 02:08:02;;;;;;;;;1.80;1.60;;;;;13.85;58.03;101664.13;4997553;28;45400;-60
2022/10/11 02:10:27;;;;;;;;;1.00;1.00;;;;;14.28;58.53;101744.81;4995870;28;45398;-61
2022/10/11 02:13:00;;;;;;;;;3.00;2.75;;;;;14.28;58.99;101751.19;4995704;28;46072;-61
2022/10/11 02:15:26;;;;;;;;;5.00;3.00;;;;;14.21;58.54;101733.78;4995911;28;45721;-61
2022/10/11 02:17:55;;;;;;;;;4.00;1.80;;;;;14.16;58.75;101744.59;4996005;28;45576;-61
2022/10/11 02:20:22;;;;;;;;;3.60;1.60;;;;;14.13;58.96;101732.06;4994997;28;45441;-61
2022/10/11 02:22:49;;;;;;;;;2.60;2.20;;;;;14.15;59.02;101749.28;4995433;28;45413;-60
2022/10/11 02:25:17;;;;;;;;;3.40;3.20;;;;;13.99;59.05;101738.66;4998989;28;45445;-60
2022/10/11 02:27:43;;;;;;;;;0.40;0.40;;;;;13.94;59.30;101731.84;4943596;28;45464;-61
2022/10/11 02:30:09;;;;;;;;;1.50;1.50;;;;;13.86;58.95;101706.38;4959383;28;46063;-60
2022/10/11 02:32:35;;;;;;;;;3.00;2.00;;;;;14.15;58.94;101737.41;4959365;28;45516;-61
2022/10/11 02:35:00;;;;;;;;;3.20;1.00;;;;;14.14;58.83;101739.28;4975823;28;45579;-61
2022/10/11 02:37:50;;;;;;;;;2.75;2.00;;;;;14.09;58.70;101744.63;4976230;28;45355;-61
2022/10/11 02:40:24;;;;;;;;;4.40;2.00;;;;;14.13;58.25;101750.56;4960548;28;47145;-61
2022/10/11 02:43:06;;;;;;;;;1.60;1.60;;;;;14.01;58.56;101733.75;4960218;28;45449;-60
2022/10/11 02:45:39;;;;;;;;;2.00;2.00;;;;;14.14;58.64;101753.09;4960364;28;45419;-61
2022/10/11 02:48:05;;;;;;;;;1.00;1.00;;;;;14.05;58.27;101749.69;4975822;28;45689;-61
2022/10/11 02:50:30;;;;;;;;;3.00;1.75;;;;;13.92;58.26;101747.78;4976338;28;45831;-65
2022/10/11 02:52:56;;;;;;;;;2.75;2.00;;;;;14.03;58.38;101750.97;4976634;28;45370;-60
2022/10/11 02:55:22;;;;;;;;;2.75;1.75;;;;;14.01;58.75;101747.56;4976879;28;45340;-60
2022/10/11 02:57:47;;;;;;;;;2.00;2.00;;;;;13.95;58.63;101744.59;4976963;28;45343;-60
2022/10/11 03:00:13;;;;;;;;;2.00;1.00;;;;;14.06;58.20;101750.53;4976131;28;46747;-60
2022/10/11 03:02:38;;;;;;;;;2.25;1.75;;;;;14.07;57.96;101752.25;4976281;28;45520;-60
2022/10/11 03:05:04;;;;;;;;;2.25;2.00;;;;;14.08;57.77;101751.19;4976433;28;45307;-60
2022/10/11 03:07:30;;;;;;;;;3.00;1.50;;;;;14.13;57.71;101751.41;4976876;28;45397;-60
2022/10/11 03:09:55;;;;;;;;;1.00;1.00;;;;;14.14;58.01;101753.09;4976049;28;46413;-61
2022/10/11 03:12:21;;;;;;;;;5.75;1.00;;;;;13.52;57.69;101667.69;4976472;28;45415;-61
2022/10/11 03:14:46;;;;;;;;;3.00;1.00;;;;;13.94;58.32;101751.16;4976433;28;45371;-60
2022/10/11 03:17:12;;;;;;;;;2.50;2.00;;;;;14.01;57.99;101748.44;4958855;28;45529;-60
2022/10/11 03:19:37;;;;;;;;;2.50;1.25;;;;;14.04;57.82;101755.44;4976082;28;45538;-61
2022/10/11 03:22:03;;;;;;;;;3.25;2.25;;;;;14.05;57.90;101752.44;4976323;28;45350;-61
2022/10/11 03:24:28;;;;;;;;;2.25;1.00;;;;;14.07;57.80;101749.47;4982547;28;45384;-61
2022/10/11 03:26:54;;;;;;;;;2.00;1.00;;;;;13.89;57.95;101748.22;4996066;28;45293;-60
2022/10/11 03:29:19;;;;;;;;;2.00;1.00;;;;;13.92;58.04;101753.28;4982172;28;46574;-60
2022/10/11 03:31:45;;;;;;;;;2.00;1.50;;;;;13.98;58.00;101753.53;4990653;28;45873;-60
2022/10/11 03:34:10;;;;;;;;;0.25;0.00;;;;;14.00;57.56;101760.53;4987788;28;45925;-62
2022/10/11 03:36:37;;;;;;;;;1.60;0.40;;;;;14.05;57.74;101760.72;4995051;28;45640;-61
2022/10/11 03:39:03;;;;;;;;;1.50;1.50;;;;;13.98;57.30;101761.78;4994325;28;46884;-61
2022/10/11 03:41:29;;;;;;;;;4.25;1.75;;;;;13.86;57.70;101762.41;4994990;28;45307;-61
2022/10/11 03:43:54;;;;;;;;;3.50;1.50;;;;;13.63;57.99;101726.91;4994442;28;45358;-61
2022/10/11 03:46:20;;;;;;;;;3.00;1.50;;;;;13.91;57.59;101762.63;4993799;28;46020;-61
2022/10/11 03:48:46;;;;;;;;;0.00;0.00;;;;;13.89;57.50;101773.03;4995456;28;46249;-61
2022/10/11 03:51:12;;;;;;;;;1.50;1.50;;;;;13.82;58.23;101761.97;5026550;28;45354;-61
2022/10/11 03:53:38;;;;;;;;;2.00;1.40;;;;;13.68;57.81;101739.00;4995588;28;45359;-61
2022/10/11 03:56:03;;;;;;;;;3.40;1.60;;;;;13.75;57.58;101739.03;5027374;28;45471;-61
2022/10/11 03:58:29;;;;;;;;;4.00;1.50;;;;;13.89;57.58;101753.72;4995037;28;46974;-61
2022/10/11 04:00:55;;;;;;;;;4.50;1.50;;;;;13.85;57.80;101771.75;4993948;28;45324;-62
2022/10/11 04:03:20;;;;;;;;;1.00;1.00;;;;;13.69;57.64;101759.19;4993991;28;45319;-61
2022/10/11 04:05:46;;;;;;;;;4.25;1.00;;;;;13.57;57.51;101764.47;4994107;28;45481;-61
2022/10/11 04:08:11;;;;;;;;;1.50;1.00;;;;;13.61;57.90;101760.22;4993685;28;47415;-61
2022/10/11 04:10:37;;;;;;;;;1.00;1.00;;;;;13.76;57.82;101778.53;4995054;28;45406;-59
2022/10/11 04:13:02;;;;;;;;;2.75;1.00;;;;;13.71;57.37;101750.72;4995264;28;45474;-59
2022/10/11 04:15:28;;;;;;;;;3.25;1.25;;;;;13.80;57.08;101771.50;4995212;28;45452;-59
2022/10/11 04:17:53;;;;;;;;;3.00;2.00;;;;;13.77;57.12;101777.47;4995057;28;45523;-60
2022/10/11 04:20:19;;;;;;;;;2.25;0.75;;;;;13.45;57.86;101744.84;4994722;28;45504;-59
2022/10/11 04:22:44;;;;;;;;;7.25;3.25;;;;;13.58;57.53;101777.19;4993993;28;45913;-62
2022/10/11 04:25:10;;;;;;;;;2.25;2.00;;;;;13.57;58.05;101782.91;4984219;28;45356;-61
2022/10/11 04:27:36;;;;;;;;;2.25;1.50;;;;;13.64;57.56;101781.88;4975241;28;45608;-62
2022/10/11 04:30:02;;;;;;;;;1.25;0.75;;;;;13.65;57.54;101786.34;4975397;28;45501;-59
2022/10/11 04:32:27;;;;;;;;;1.00;1.00;;;;;13.59;57.20;101789.06;4958343;28;45408;-59
2022/10/11 04:34:53;;;;;;;;;6.50;3.00;;;;;13.52;57.80;101795.44;4974060;28;45567;-60
2022/10/11 04:37:18;;;;;;;;;1.75;1.00;;;;;13.45;57.76;101799.16;4973805;28;47965;-61
2022/10/11 04:39:44;;;;;;;;;2.00;1.00;;;;;13.38;57.60;101799.13;4957679;28;45358;-61
2022/10/11 04:42:09;;;;;;;;;2.25;2.25;;;;;13.34;58.04;101778.56;4958324;28;45815;-62
2022/10/11 04:44:35;;;;;;;;;3.00;2.00;;;;;13.37;57.72;101792.78;4974189;28;45529;-61
2022/10/11 04:47:00;;;;;;;;;1.75;1.75;;;;;13.39;57.78;101784.28;4974249;28;47064;-61
2022/10/11 04:49:26;;;;;;;;;2.00;1.00;;;;;13.45;57.89;101783.47;4975249;28;45882;-61
2022/10/11 04:51:52;;;;;;;;;2.25;0.00;;;;;13.37;57.52;101787.25;4975421;28;45457;-61
2022/10/11 04:54:17;;;;;;;;;2.25;1.00;;;;;13.42;57.58;101794.91;4975744;28;45519;-61
2022/10/11 04:56:43;;;;;;;;;3.00;3.00;;;;;13.20;57.73;101766.59;4973920;28;48173;-59
2022/10/11 04:59:08;;;;;;;;;5.00;2.00;;;;;13.31;58.09;101795.50;4975048;28;45462;-60
2022/10/11 05:01:34;;;;;;;;;1.00;1.00;;;;;13.25;57.87;101788.91;4973722;28;45431;-61
2022/10/11 05:04:00;;;;;;;;;2.25;2.00;;;;;13.14;57.84;101774.63;4976146;28;45630;-61
2022/10/11 05:06:25;;;;;;;;;3.00;2.00;;;;;13.32;57.93;101792.53;4978271;28;45606;-61
2022/10/11 05:08:51;;;;;;;;;3.00;1.75;;;;;13.25;57.48;101786.13;4978556;28;45477;-62
2022/10/11 05:11:16;;;;;;;;;1.25;1.00;;;;;12.90;57.68;101736.56;4978571;28;45358;-60
2022/10/11 05:13:42;;;;;;;;;1.00;1.00;;;;;12.79;57.62;101737.97;4977331;28;45680;-60
2022/10/11 05:16:08;;;;;;;;;2.25;1.00;;;;;13.11;58.22;101799.00;4977216;28;45532;-60
2022/10/11 05:18:34;;;;;;;;;3.25;2.00;;;;;12.86;58.53;101756.25;4977096;28;45813;-59
2022/10/11 05:21:08;;;;;;;;;3.50;2.25;;;;;13.11;58.62;101794.34;4977220;28;45314;-60
2022/10/11 05:23:34;;;;;;;;;1.80;1.80;;;;;13.07;58.28;101804.06;4950159;28;46047;-60
2022/10/11 05:26:00;;;;;;;;;3.60;2.60;;;;;12.84;58.81;101761.13;4997690;28;45592;-60
2022/10/11 05:28:28;;;;;;;;;2.00;2.00;;;;;13.16;58.65;101802.00;4996900;28;45409;-60
2022/10/11 05:30:54;;;;;;;;;2.80;2.80;;;;;12.86;58.40;101760.91;4997463;28;45712;-60
2022/10/11 05:33:20;;;;;;;;;3.00;3.00;;;;;13.10;58.73;101795.41;4997162;28;45525;-60
2022/10/11 05:35:46;;;;;;;;;3.00;2.60;;;;;13.12;58.18;101790.53;4980054;28;46642;-61
2022/10/11 05:38:12;;;;;;;;;4.50;2.75;;;;;13.11;58.69;101810.88;4996184;28;45743;-60
2022/10/11 05:40:37;;;;;;;;;3.50;2.25;;;;;13.07;58.71;101805.97;4996351;28;45308;-60
2022/10/11 05:43:03;;;;;;;;;3.25;2.75;;;;;13.08;59.00;101814.03;4998014;28;45619;-64
2022/10/11 05:45:29;;;;;;;;;2.50;2.00;;;;;12.99;58.53;101804.22;4998081;28;46460;-61
2022/10/11 05:47:55;;;;;;;;;2.50;2.50;;;;;12.87;58.48;101803.94;4997587;28;45184;-60
2022/10/11 05:50:20;;;;;;;;;1.00;1.00;;;;;12.80;58.66;101809.41;4996396;28;45334;-61
2022/10/11 05:52:46;;;;;;;;;2.00;2.00;;;;;12.83;59.00;101806.25;4997983;28;45627;-61
2022/10/11 05:55:11;;;;;;;;;1.00;1.00;;;;;12.65;59.29;101794.88;4996163;28;45719;-60
2022/10/11 05:57:37;;;;;;;;;3.75;2.00;;;;;12.52;59.06;101774.44;4997707;28;45282;-60
2022/10/11 06:00:04;;;;;;;;;2.00;2.00;;;;;12.56;58.95;101777.66;4997033;28;45457;-61
2022/10/11 06:02:29;;;;;;;;;6.00;3.00;;;;;12.81;59.03;101816.59;4997841;28;45372;-61
2022/10/11 06:04:55;;;;;;;;;4.00;1.00;;;;;12.83;58.63;101820.03;4996966;28;46891;-62
2022/10/11 06:07:20;;;;;;;;;3.50;2.00;;;;;12.78;58.75;101813.41;4997216;28;45379;-61
2022/10/11 06:09:46;;;;;;;;;2.50;1.75;;;;;12.73;58.89;101811.25;4996523;28;45607;-60
2022/10/11 06:12:11;;;;;;;;;4.50;1.00;;;;;12.69;58.90;101812.69;4997211;28;45389;-61
2022/10/11 06:14:37;;;;;;;;;5.50;3.25;;;;;12.68;59.06;101817.38;4996859;28;46030;-60
2022/10/11 06:17:03;;;;;;;;;2.25;2.00;;;;;12.64;59.00;101812.47;4997158;28;45411;-59
2022/10/11 06:19:28;;;;;;;;;2.50;1.50;;;;;12.56;59.39;101816.22;4997298;28;45335;-59
2022/10/11 06:21:54;;;;;;;;;4.75;2.50;;;;;12.59;59.19;101824.06;4997346;28;45690;-60
2022/10/11 06:24:19;;;;;;;;;3.00;3.00;;;;;12.68;59.27;101827.53;4997002;28;45294;-61
2022/10/11 06:26:47;;;;;;;;;5.75;3.00;;;;;12.70;58.98;101822.69;4996906;28;45338;-61
2022/10/11 06:29:13;;;;;;;;;4.20;3.60;;;;;12.69;58.73;101830.09;4996673;28;45407;-62
2022/10/11 06:31:38;;;;;;;;;4.00;1.25;;;;;12.68;59.20;101838.53;4997565;28;45386;-61
2022/10/11 06:34:04;;;;;;;;;2.75;2.75;;;;;12.63;58.98;101819.03;4996846;28;45468;-59
2022/10/11 06:36:30;;;;;;;;;3.25;0.75;;;;;12.57;58.79;101826.16;4995314;28;45425;-62
2022/10/11 06:38:55;;;;;;;;;3.75;2.00;;;;;12.67;59.06;101832.19;4997111;28;45358;-61
2022/10/11 06:41:25;;;;;;;;;2.00;2.00;;;;;12.48;59.06;101795.16;4996715;28;45391;-61
2022/10/11 06:43:50;;;;;;;;;3.40;2.60;;;;;12.58;58.66;101803.94;4996752;28;47149;-60
2022/10/11 06:46:20;;;;;;;;;1.50;1.00;;;;;12.57;58.50;101807.75;4996494;28;45413;-60
2022/10/11 06:48:48;;;;;;;;;3.60;1.80;;;;;12.69;58.47;101818.19;4996852;28;45449;-61
2022/10/11 06:51:14;;;;;;;;;4.40;3.00;;;;;12.81;58.21;101849.66;4996892;28;45477;-61
2022/10/11 06:53:40;;;;;;;;;3.20;3.20;;;;;12.56;58.71;101835.47;4996378;28;45426;-60
2022/10/11 06:56:09;;;;;;;;;2.00;2.00;;;;;12.59;58.87;101837.81;4995567;28;45415;-61
2022/10/11 06:58:35;;;;;;;;;4.40;2.00;;;;;12.67;58.89;101842.34;4996667;28;45327;-61
2022/10/11 07:01:01;;;;;;;;;3.25;2.00;;;;;12.58;58.89;101855.41;4996780;28;45597;-61
2022/10/11 07:03:28;;;;;;;;;3.20;2.20;;;;;12.50;59.02;101828.00;4996243;28;45293;-61
2022/10/11 07:05:58;;;;;;;;;5.00;2.20;;;;;12.65;58.87;101841.69;4994700;28;45311;-62
2022/10/11 07:08:23;;;;;;;;;5.80;2.80;;;;;12.67;58.76;101850.59;4996726;28;45488;-60
2022/10/11 07:10:50;;;;;;;;;2.00;2.00;;;;;12.49;58.74;101840.06;4978767;28;45435;-60
2022/10/11 07:13:15;;;;;;;;;4.80;2.20;;;;;12.58;58.60;101858.16;4994784;28;45366;-60
2022/10/11 07:15:41;;;;;;;;;5.50;3.00;;;;;12.22;59.13;101801.28;4995088;28;45405;-60
2022/10/11 07:18:06;;;;;;;;;4.75;2.75;;;;;12.60;58.49;101839.56;4995201;28;45326;-61
2022/10/11 07:20:32;;;;;;;;;3.25;3.25;;;;;12.77;58.34;101864.03;4968895;28;45584;-60
2022/10/11 07:22:58;;;;;;;;;5.25;4.00;;;;;12.81;58.40;101865.34;4995880;28;45324;-60
2022/10/11 07:25:23;;;;;;;;;4.75;4.25;;;;;12.86;57.77;101869.22;4995132;28;45521;-59
2022/10/11 07:27:49;;;;;;;;;8.75;3.75;;;;;12.77;57.90;101858.53;4995859;28;45358;-61
2022/10/11 07:30:14;;;;;;;;;5.50;3.75;;;;;12.65;57.84;101831.53;4978338;28;45344;-59
2022/10/11 07:32:40;;;;;;;;;3.00;2.00;;;;;12.82;57.30;101856.88;4995532;28;45304;-59
2022/10/11 07:35:06;;;;;;;;;5.00;3.00;;;;;12.95;57.42;101869.06;4996174;28;45379;-59
2022/10/11 07:37:32;;;;;;;;;6.00;4.50;;;;;12.94;57.22;101856.34;4995643;28;45514;-59
2022/10/11 07:39:58;;;;;;;;;3.60;2.40;;;;;12.94;57.01;101856.34;4994944;28;45487;-59
2022/10/11 07:42:23;;;;;;;;;4.50;1.75;;;;;13.00;56.71;101881.19;4966994;28;45576;-60
2022/10/11 07:44:49;;;;;;;;;3.75;3.75;;;;;12.91;56.31;101863.09;4986762;28;45568;-62
2022/10/11 07:47:14;;;;;;;;;4.00;3.00;;;;;12.97;56.38;101881.56;4971809;28;45652;-59
2022/10/11 07:49:40;;;;;;;;;3.75;2.00;;;;;12.99;56.00;101879.50;4980485;28;45583;-58
2022/10/11 07:52:05;;;;;;;;;2.25;1.75;;;;;12.84;56.50;101868.56;4989073;28;45490;-57
2022/10/11 07:54:32;;;;;;;;;4.25;2.50;;;;;12.74;56.56;101852.38;4990434;28;45498;-59
2022/10/11 07:56:58;;;;;;;;;4.00;3.20;;;;;13.01;56.12;101882.91;4989231;28;45444;-55
2022/10/11 07:59:23;;;;;;;;;4.25;1.50;;;;;13.00;55.52;101886.72;4991252;28;45766;-53
2022/10/11 08:01:49;;;;;;;;;3.50;3.00;;;;;13.00;55.95;101894.97;4988461;28;46559;-57
2022/10/11 08:04:15;;;;;;;;;8.25;5.00;;;;;13.04;55.83;101900.06;4989644;28;45426;-59
2022/10/11 08:06:41;;;;;;;;;6.20;4.40;;;;;13.01;56.32;101896.66;4989028;28;45441;-60
2022/10/11 08:09:06;;;;;;;;;5.60;5.00;;;;;13.11;55.97;101903.72;5003266;28;45476;-59
2022/10/11 08:11:34;;;;;;;;;3.75;3.75;;;;;13.14;55.59;101900.59;4990255;28;45505;-61
2022/10/11 08:14:00;;;;;;;;;2.00;2.00;;;;;13.03;55.56;101888.22;4969292;28;45543;-56
2022/10/11 08:16:26;;;;;;;;;3.00;3.00;;;;;13.18;55.51;101895.53;4969203;28;45456;-57
2022/10/11 08:18:54;;;;;;;;;6.00;4.00;;;;;13.13;55.68;101891.44;4970487;28;45531;-58
2022/10/11 08:21:19;;;;;;;;;3.00;2.40;;;;;13.11;55.92;101906.47;4978735;28;45474;-59
2022/10/11 08:23:45;;;;;;;;;3.25;3.25;;;;;13.14;55.87;101908.84;4989067;28;45678;-58
2022/10/11 08:26:11;;;;;;;;;5.00;3.00;;;;;13.19;56.05;101911.00;4960947;28;45511;-54
2022/10/11 08:28:36;;;;;;;;;5.60;4.00;;;;;13.18;55.65;101909.31;4968811;28;45439;-56
2022/10/11 08:31:02;;;;;;;;;4.00;4.00;;;;;13.15;55.88;101916.06;4976039;28;46052;-58
2022/10/11 08:33:27;;;;;;;;;6.00;3.00;;;;;13.19;55.63;101906.34;4978176;28;45463;-59
2022/10/11 08:35:53;;;;;;;;;9.75;5.00;;;;;13.15;55.77;101916.06;4986152;28;45547;-63
2022/10/11 08:38:19;;;;;;;;;3.25;3.25;;;;;13.07;56.36;101906.03;4994800;28;45534;-60
2022/10/11 08:40:49;;;;;;;;;2.75;2.75;;;;;13.09;56.19;101914.97;4990051;28;46218;-61
2022/10/11 08:43:35;;;;;;;;;3.00;3.00;;;;;13.09;56.01;101917.72;4978684;28;45431;-59
2022/10/11 08:46:01;;;;;;;;;6.60;4.20;;;;;13.17;56.53;101916.72;4991250;28;45460;-59
2022/10/11 08:48:41;;;;;;;;;5.40;3.00;;;;;13.19;55.82;101911.00;4978917;28;45506;-61
2022/10/11 08:51:29;;;;;;;;;2.60;2.60;;;;;13.29;55.80;101926.13;4990601;28;46076;-61
2022/10/11 08:54:06;;;;;;;;;6.60;4.00;;;;;13.21;55.67;101918.03;4995189;28;45437;-60
2022/10/11 08:56:34;;;;;;;;;5.20;4.00;;;;;13.24;55.63;101922.28;4978817;28;45410;-59
2022/10/11 08:59:12;;;;;;;;;3.80;3.80;;;;;13.25;55.75;101926.75;4994613;28;45555;-63
2022/10/11 09:01:43;;;;;;;;;4.40;3.40;;;;;13.24;55.69;101931.38;4996787;28;46649;-61
2022/10/11 09:04:16;;;;;;;;;3.00;2.60;;;;;13.33;55.69;101918.31;4978925;28;45847;-61
2022/10/11 09:06:48;;;;;;;;;6.40;3.60;;;;;13.38;55.19;101925.97;4993624;28;45475;-60
2022/10/11 09:09:23;;;;;;;;;6.00;3.00;;;;;13.40;55.44;101919.19;4995796;28;45758;-60
2022/10/11 09:12:06;;;;;;;;;6.40;3.80;;;;;13.44;54.92;101924.31;4995272;28;45663;-60
2022/10/11 09:14:43;;;;;;;;;6.00;3.00;;;;;13.50;55.43;101926.31;4996715;28;45488;-59
2022/10/11 09:17:44;;;;;;;;;5.40;5.20;;;;;13.42;55.17;101888.66;4995489;28;45721;-61
2022/10/11 09:20:19;;;;;;;;;5.60;2.60;;;;;13.48;54.86;101884.28;4953384;28;45545;-56
2022/10/11 09:23:17;;;;;;;;;4.00;4.00;;;;;13.72;54.29;101921.53;4984083;28;46589;-57
2022/10/11 09:25:53;;;;;;;;;4.00;4.00;;;;;13.72;54.45;101917.94;4990884;28;45464;-59
2022/10/11 09:28:40;;;;;;;;;3.00;3.00;;;;;13.68;54.45;101912.81;4977085;28;45488;-52
2022/10/11 09:31:09;;;;;;;;;5.20;2.60;;;;;13.81;54.57;101923.06;4976973;28;45551;-60
2022/10/11 09:33:43;;;;;;;;;3.80;3.80;;;;;13.80;54.35;101915.00;4980371;28;46610;-63
2022/10/11 09:36:43;;;;;;;;;4.60;4.00;;;;;13.62;54.20;101883.31;4996044;28;45467;-61
2022/10/11 09:39:25;;;;;;;;;6.00;4.20;;;;;13.88;54.78;101920.34;4967758;28;45616;-65
2022/10/11 09:42:00;;;;;;;;;5.00;5.00;;;;;13.78;53.96;101881.25;4992751;28;45493;-62
2022/10/11 09:44:28;;;;;;;;;4.40;4.40;;;;;14.00;54.21;101912.34;4982912;28;51115;-62
2022/10/11 09:46:55;;;;;;;;;9.00;5.00;;;;;14.02;54.42;101898.31;4977568;28;45485;-67
2022/10/11 09:49:22;;;;;;;;;4.20;3.40;;;;;14.17;54.10;101903.66;4990922;28;45726;-62
2022/10/11 09:51:55;;;;;;;;;6.60;3.80;;;;;14.29;54.14;101906.69;4990150;28;45615;-63
2022/10/11 09:54:37;;;;;;;;;4.80;4.60;;;;;14.16;53.99;101869.72;4959107;28;47124;-65
2022/10/11 09:57:02;;;;;;;;;4.00;3.40;;;;;14.22;53.34;101854.22;4975299;28;45913;-62
2022/10/11 09:59:34;;;;;;;;;4.00;4.00;;;;;14.63;53.24;101896.56;4989043;28;45568;-61
2022/10/11 10:02:11;;;;;;;;;11.80;4.60;;;;;14.73;53.44;101896.13;4991750;28;46408;-61
2022/10/11 10:04:58;;;;;;;;;7.20;5.20;;;;;14.89;53.14;101897.66;4992661;28;46045;-62
2022/10/11 10:07:24;;;;;;;;;8.20;5.60;;;;;15.05;53.23;101890.81;4991431;28;45406;-65
2022/10/11 10:09:50;;;;;;;;;9.25;5.25;;;;;15.22;52.46;101895.94;4973997;28;45430;-63
2022/10/11 10:12:23;;;;;;;;;8.25;8.25;;;;;15.08;52.61;101853.59;4972444;28;45460;-64
2022/10/11 10:15:02;;;;;;;;;6.80;6.40;;;;;15.36;52.26;101889.28;4991323;28;45580;-64
2022/10/11 10:17:28;;;;;;;;;7.60;4.60;;;;;15.04;52.60;101818.13;4979512;28;45386;-61
2022/10/11 10:19:54;;;;;;;;;7.00;4.50;;;;;15.72;52.06;101890.69;4995326;28;45486;-61
2022/10/11 10:22:24;;;;;;;;;5.40;4.40;;;;;15.81;51.91;101899.56;4979509;28;45448;-61
2022/10/11 10:24:50;;;;;;;;;4.60;4.60;;;;;15.90;51.73;101896.59;4996139;28;47546;-64
2022/10/11 10:27:23;;;;;;;;;4.75;4.75;;;;;15.95;51.74;101880.19;4996494;28;45581;-63
2022/10/11 10:30:03;;;;;;;;;8.40;5.40;;;;;16.06;51.09;101892.50;4994855;28;45397;-60
2022/10/11 10:32:35;;;;;;;;;8.20;6.00;;;;;16.18;51.14;101893.50;4995894;28;45374;-63
2022/10/11 10:35:12;;;;;;;;;6.80;5.60;;;;;16.16;50.77;101867.94;5020957;28;45408;-61
2022/10/11 10:37:58;;;;;;;;;9.20;6.40;;;;;16.36;50.18;101887.22;4975153;28;45358;-63
2022/10/11 10:40:45;;;;;;;;;7.80;6.20;;;;;16.56;50.49;101897.31;4956358;28;45828;-64
2022/10/11 10:43:15;;;;;;;;;10.40;6.80;;;;;16.66;50.19;101897.63;4974194;28;45410;-65
2022/10/11 10:46:10;;;;;;;;;10.20;8.20;;;;;16.69;49.98;101903.81;4976061;28;45550;-64
2022/10/11 10:48:38;;;;;;;;;4.40;4.40;;;;;16.76;49.98;101882.44;4979817;28;45372;-61
2022/10/11 10:51:16;;;;;;;;;6.20;5.80;;;;;16.86;49.76;101895.81;4994514;28;45453;-62
2022/10/11 10:53:48;;;;;;;;;9.20;6.80;;;;;16.94;49.63;101887.19;4996850;28;45335;-61
2022/10/11 10:56:36;;;;;;;;;6.20;6.20;;;;;17.05;49.53;101891.16;4978655;28;46654;-60
2022/10/11 10:59:20;;;;;;;;;9.25;6.50;;;;;16.99;49.16;101861.53;4994870;28;45484;-61
2022/10/11 11:02:10;;;;;;;;;9.60;8.00;;;;;17.29;48.53;101883.06;4995301;28;45416;-62
2022/10/11 11:04:35;;;;;;;;;8.00;7.00;;;;;17.08;48.85;101854.69;4995113;28;45656;-59
2022/10/11 11:07:24;;;;;;;;;7.50;6.00;;;;;17.27;48.37;101879.63;4978360;28;45500;-60
2022/10/11 11:10:02;;;;;;;;;10.20;7.80;;;;;17.46;48.83;101881.34;4995842;28;45403;-64
2022/10/11 11:12:54;;;;;;;;;6.80;6.80;;;;;17.63;48.58;101877.97;4995289;28;45372;-64
2022/10/11 11:15:27;;;;;;;;;9.80;7.60;;;;;17.69;48.56;101857.63;4995167;28;45354;-64
2022/10/11 11:18:15;;;;;;;;;10.00;7.60;;;;;18.05;47.58;101874.50;4994790;28;45619;-64
2022/10/11 11:20:44;;;;;;;;;4.60;4.60;;;;;18.46;47.20;101877.50;4992468;28;45845;-63
2022/10/11 11:23:26;;;;;;;;;8.40;6.00;;;;;19.03;45.98;101875.31;4995970;28;45410;-61
2022/10/11 11:26:02;;;;;;;;;6.20;6.20;;;;;20.79;42.98;101875.22;4996027;28;45522;-65
2022/10/11 11:28:36;;;;;;;;;10.60;8.80;;;;;24.83;35.94;101871.25;4979009;28;47568;-64
2022/10/11 11:31:10;;;;;;;;;8.40;6.20;;;;;27.87;30.86;101869.44;4994442;28;45519;-63
2022/10/11 11:33:42;;;;;;;;;5.00;5.00;;;;;30.01;26.78;101858.00;4994628;28;45391;-63
2022/10/11 11:36:16;;;;;;;;;9.00;5.20;;;;;31.31;25.38;101849.94;4996012;28;45539;-61